createdAt,value
2019-03-08T00:00:01.537Z,0.80
2019-03-08T00:02:32.743Z,1.20
2019-03-08T00:05:02.669Z,1.00
2019-03-08T00:07:32.531Z,0.80
2019-03-08T00:10:02.246Z,0.80
2019-03-08T00:12:32.247Z,0.80
2019-03-08T00:15:02.192Z,1.20
2019-03-08T00:17:32.253Z,0.93
2019-03-08T00:20:01.920Z,0.82
2019-03-08T00:22:32.594Z,0.70
2019-03-08T00:25:02.193Z,1.20
2019-03-08T00:27:31.987Z,0.72
2019-03-08T00:30:01.887Z,0.80
2019-03-08T00:32:31.599Z,0.68
2019-03-08T00:35:01.683Z,0.93
2019-03-08T00:37:31.641Z,0.70
2019-03-08T00:40:01.666Z,0.90
2019-03-08T00:42:31.709Z,0.70
2019-03-08T00:45:01.374Z,0.80
2019-03-08T00:47:30.973Z,0.90
2019-03-08T00:50:00.600Z,0.65
2019-03-08T00:52:30.611Z,0.88
2019-03-08T00:55:00.501Z,0.70
2019-03-08T00:57:30.116Z,0.70
2019-03-08T00:59:59.725Z,0.80
2019-03-08T01:02:29.867Z,0.80
2019-03-08T01:04:59.492Z,1.02
2019-03-08T01:07:29.042Z,0.90
2019-03-08T01:09:59.042Z,0.70
2019-03-08T01:12:28.662Z,0.90
2019-03-08T01:14:58.311Z,0.90
2019-03-08T01:17:28.153Z,0.70
2019-03-08T01:19:57.695Z,0.80
2019-03-08T01:22:27.227Z,0.88
2019-03-08T01:24:57.161Z,0.80
2019-03-08T01:27:27.082Z,0.60
2019-03-08T01:29:57.293Z,0.80
2019-03-08T01:32:28.008Z,0.88
2019-03-08T01:34:57.837Z,0.72
2019-03-08T01:37:27.480Z,0.80
2019-03-08T01:39:57.109Z,0.53
2019-03-08T01:42:27.139Z,0.60
2019-03-08T01:44:56.763Z,0.60
2019-03-08T01:47:26.303Z,0.60
2019-03-08T01:49:55.936Z,0.65
2019-03-08T01:52:25.533Z,0.70
2019-03-08T01:54:55.451Z,0.70
2019-03-08T01:57:25.376Z,0.40
2019-03-08T01:59:55.503Z,0.60
2019-03-08T02:02:25.438Z,0.60
2019-03-08T02:04:55.002Z,0.50
2019-03-08T02:07:24.579Z,0.60
2019-03-08T02:09:54.382Z,0.50
2019-03-08T02:12:23.974Z,0.50
2019-03-08T02:14:53.983Z,0.68
2019-03-08T02:17:24.169Z,0.50
2019-03-08T02:19:53.791Z,0.60
2019-03-08T02:22:24.408Z,0.70
2019-03-08T02:24:54.416Z,0.65
2019-03-08T02:27:24.847Z,0.70
2019-03-08T02:29:54.724Z,0.62
2019-03-08T02:32:24.448Z,0.70
2019-03-08T02:34:54.521Z,0.55
2019-03-08T02:37:24.181Z,0.50
2019-03-08T02:39:53.862Z,0.57
2019-03-08T02:42:23.617Z,0.45
2019-03-08T02:44:53.394Z,0.53
2019-03-08T02:47:42.559Z,0.60
2019-03-08T02:50:12.154Z,0.60
2019-03-08T02:52:41.898Z,0.60
2019-03-08T02:55:12.667Z,0.57
2019-03-08T02:57:42.252Z,0.55
2019-03-08T03:00:11.904Z,0.70
2019-03-08T03:02:41.743Z,0.40
2019-03-08T03:05:11.435Z,0.30
2019-03-08T03:07:41.069Z,0.57
2019-03-08T03:10:10.806Z,0.60
2019-03-08T03:12:40.844Z,0.55
2019-03-08T03:15:10.521Z,0.50
2019-03-08T03:17:40.507Z,0.60
2019-03-08T03:20:10.636Z,0.50
2019-03-08T03:22:40.355Z,0.53
2019-03-08T03:25:10.010Z,0.60
2019-03-08T03:27:39.718Z,0.50
2019-03-08T03:30:09.593Z,0.42
2019-03-08T03:32:39.239Z,0.40
2019-03-08T03:35:08.913Z,0.55
2019-03-08T03:37:38.435Z,0.65
2019-03-08T03:40:14.103Z,0.60
2019-03-08T03:42:43.684Z,0.68
2019-03-08T03:45:13.305Z,0.72
2019-03-08T03:47:43.271Z,0.40
2019-03-08T03:50:12.917Z,0.40
2019-03-08T03:52:42.716Z,0.57
2019-03-08T03:55:12.736Z,0.45
2019-03-08T03:57:43.057Z,0.40
2019-03-08T04:00:13.498Z,0.30
2019-03-08T04:02:43.232Z,0.40
2019-03-08T04:05:13.093Z,0.40
2019-03-08T04:07:43.715Z,0.50
2019-03-08T04:10:13.361Z,0.42
2019-03-08T04:12:44.265Z,0.50
2019-03-08T04:15:14.041Z,0.50
2019-03-08T04:17:43.676Z,0.60
2019-03-08T04:20:13.613Z,0.35
2019-03-08T04:22:43.597Z,0.50
2019-03-08T04:25:13.508Z,0.40
2019-03-08T04:27:43.161Z,0.40
2019-03-08T04:30:14.000Z,0.40
2019-03-08T04:32:43.596Z,0.33
2019-03-08T04:35:13.173Z,0.50
2019-03-08T04:37:42.818Z,0.40
2019-03-08T04:40:12.465Z,0.40
2019-03-08T04:42:42.416Z,0.55
2019-03-08T04:45:12.663Z,0.47
2019-03-08T04:47:42.399Z,0.50
2019-03-08T04:50:12.031Z,0.45
2019-03-08T04:52:42.303Z,0.30
2019-03-08T04:55:12.384Z,0.50
2019-03-08T04:57:42.307Z,0.47
2019-03-08T05:00:12.556Z,0.50
2019-03-08T05:02:42.180Z,0.50
2019-03-08T05:05:11.814Z,0.42
2019-03-08T05:07:41.812Z,0.40
2019-03-08T05:10:12.351Z,0.42
2019-03-08T05:12:42.432Z,0.40
2019-03-08T05:15:12.029Z,0.47
2019-03-08T05:17:41.951Z,0.25
2019-03-08T05:20:12.535Z,0.50
2019-03-08T05:22:42.452Z,0.40
2019-03-08T05:25:12.107Z,0.40
2019-03-08T05:27:41.687Z,0.40
2019-03-08T05:30:11.539Z,0.37
2019-03-08T05:32:41.521Z,0.60
2019-03-08T05:35:11.528Z,0.50
2019-03-08T05:37:41.517Z,0.40
2019-03-08T05:40:12.285Z,0.40
2019-03-08T05:42:42.214Z,0.40
2019-03-08T05:45:12.219Z,0.47
2019-03-08T05:47:41.870Z,0.40
2019-03-08T05:50:11.509Z,0.40
2019-03-08T05:52:41.796Z,0.40
2019-03-08T05:55:11.446Z,0.45
2019-03-08T05:57:41.066Z,0.55
2019-03-08T06:00:11.101Z,0.40
2019-03-08T06:02:40.717Z,0.30
2019-03-08T06:05:10.305Z,0.50
2019-03-08T06:07:40.124Z,0.40
2019-03-08T06:10:28.366Z,0.50
2019-03-08T06:12:57.925Z,0.47
2019-03-08T06:15:28.060Z,0.55
2019-03-08T06:17:58.023Z,0.45
2019-03-08T06:20:27.673Z,0.70
2019-03-08T06:22:57.318Z,0.30
2019-03-08T06:25:27.730Z,0.40
2019-03-08T06:27:57.598Z,0.42
2019-03-08T06:30:28.785Z,0.42
2019-03-08T06:32:58.754Z,0.50
2019-03-08T06:35:31.823Z,0.40
2019-03-08T06:38:03.090Z,0.40
2019-03-08T06:40:33.164Z,0.50
2019-03-08T06:43:02.792Z,0.50
2019-03-08T06:45:33.011Z,0.40
2019-03-08T06:48:03.092Z,0.40
2019-03-08T06:50:34.630Z,0.40
2019-03-08T06:53:04.357Z,0.40
2019-03-08T06:55:34.456Z,0.50
2019-03-08T06:58:05.147Z,0.60
2019-03-08T07:00:40.757Z,0.50
2019-03-08T07:03:10.716Z,0.50
2019-03-08T07:05:40.306Z,0.40
2019-03-08T07:08:10.012Z,0.40
2019-03-08T07:10:40.089Z,0.50
2019-03-08T07:13:09.787Z,0.50
2019-03-08T07:15:39.391Z,0.60
2019-03-08T07:18:12.851Z,0.40
2019-03-08T07:20:55.616Z,0.30
2019-03-08T07:23:44.793Z,0.37
2019-03-08T07:26:38.101Z,0.40
2019-03-08T07:29:38.687Z,0.40
2019-03-08T07:32:26.639Z,0.45
2019-03-08T07:35:19.268Z,0.40
2019-03-08T07:38:17.038Z,0.50
2019-03-08T07:41:20.536Z,0.40
2019-03-08T07:44:15.345Z,0.30
2019-03-08T07:47:12.932Z,0.45
2019-03-08T07:50:04.564Z,0.30
2019-03-08T07:52:53.189Z,0.30
2019-03-08T07:55:40.655Z,0.50
2019-03-08T07:58:47.460Z,0.33
2019-03-08T08:01:22.737Z,0.40
2019-03-08T08:04:09.400Z,0.40
2019-03-08T08:06:47.146Z,0.60
2019-03-08T08:09:34.687Z,0.50
2019-03-08T08:12:22.211Z,0.30
2019-03-08T08:15:13.921Z,0.47
2019-03-08T08:17:57.680Z,0.30
2019-03-08T08:20:55.382Z,0.53
2019-03-08T08:23:42.721Z,0.30
2019-03-08T08:26:31.389Z,0.60
2019-03-08T08:29:18.560Z,0.50
2019-03-08T08:32:00.228Z,0.50
2019-03-08T08:34:47.680Z,0.30
2019-03-08T08:37:42.382Z,0.53
2019-03-08T08:40:42.994Z,0.40
2019-03-08T08:43:23.814Z,0.30
2019-03-08T08:46:21.847Z,0.37
2019-03-08T08:49:00.316Z,0.40
2019-03-08T08:51:47.380Z,0.50
2019-03-08T08:54:45.056Z,0.60
2019-03-08T08:57:32.774Z,0.37
2019-03-08T09:00:14.410Z,0.40
2019-03-08T09:03:00.570Z,0.60
2019-03-08T09:05:56.411Z,0.50
2019-03-08T09:08:35.288Z,0.50
2019-03-08T09:11:24.128Z,0.50
2019-03-08T09:14:13.888Z,0.28
2019-03-08T09:16:58.550Z,0.62
2019-03-08T09:19:48.275Z,0.40
2019-03-08T09:22:37.265Z,0.50
2019-03-08T09:25:15.557Z,0.57
2019-03-08T09:27:50.994Z,0.40
2019-03-08T09:30:43.050Z,0.50
2019-03-08T09:33:30.497Z,0.50
2019-03-08T09:36:24.054Z,0.40
2019-03-08T09:39:16.250Z,0.30
2019-03-08T09:42:20.231Z,0.40
2019-03-08T09:47:57.775Z,0.37
2019-03-08T09:50:58.610Z,0.72
2019-03-08T09:53:43.264Z,0.68
2019-03-08T09:56:19.417Z,0.30
2019-03-08T09:59:00.413Z,0.40
2019-03-08T10:01:44.666Z,0.40
2019-03-08T10:04:34.208Z,0.40
2019-03-08T10:07:23.302Z,0.33
2019-03-08T10:10:18.233Z,0.35
2019-03-08T10:13:08.219Z,0.30
2019-03-08T10:15:46.676Z,0.33
2019-03-08T10:18:33.766Z,0.20
2019-03-08T10:21:15.726Z,0.35
2019-03-08T10:24:04.420Z,0.30
2019-03-08T10:26:49.672Z,0.37
2019-03-08T10:29:36.859Z,0.30
2019-03-08T10:32:19.155Z,0.40
2019-03-08T10:35:23.306Z,0.60
2019-03-08T10:38:11.067Z,0.45
2019-03-08T10:40:52.126Z,0.40
2019-03-08T10:43:33.748Z,0.50
2019-03-08T10:46:28.542Z,0.20
2019-03-08T10:49:04.599Z,0.40
2019-03-08T10:52:05.495Z,0.28
2019-03-08T10:54:58.558Z,0.30
2019-03-08T10:57:51.125Z,0.40
2019-03-08T11:00:30.750Z,0.40
2019-03-08T11:03:25.414Z,0.40
2019-03-08T11:06:10.494Z,0.20
2019-03-08T11:08:52.067Z,0.50
2019-03-08T11:11:39.658Z,0.30
2019-03-08T11:14:39.380Z,0.40
2019-03-08T11:17:18.810Z,0.40
2019-03-08T11:20:16.559Z,0.30
2019-03-08T11:23:05.026Z,0.57
2019-03-08T11:25:53.986Z,0.40
2019-03-08T11:28:42.690Z,0.47
2019-03-08T11:31:32.713Z,0.50
2019-03-08T11:34:13.294Z,0.30
2019-03-08T11:37:13.912Z,0.42
2019-03-08T11:39:48.276Z,0.50
2019-03-08T11:42:33.182Z,0.50
2019-03-08T11:45:10.101Z,0.45
2019-03-08T11:47:57.276Z,0.60
2019-03-08T11:50:48.848Z,0.70
2019-03-08T11:53:40.914Z,0.42
2019-03-08T11:56:29.210Z,0.45
2019-03-08T11:59:21.924Z,0.40
2019-03-08T12:02:09.335Z,0.40
2019-03-08T12:04:52.850Z,0.42
2019-03-08T12:07:38.780Z,0.37
2019-03-08T12:10:19.447Z,0.50
2019-03-08T12:13:19.945Z,0.40
2019-03-08T12:16:05.962Z,0.37
2019-03-08T12:18:47.133Z,0.45
2019-03-08T12:21:48.507Z,0.45
2019-03-08T12:24:46.377Z,0.60
2019-03-08T12:27:38.131Z,0.50
2019-03-08T12:30:42.300Z,0.37
2019-03-08T12:33:38.079Z,0.60
2019-03-08T12:36:18.509Z,0.53
2019-03-08T12:39:10.439Z,0.30
2019-03-08T12:42:03.272Z,0.40
2019-03-08T12:44:43.291Z,0.20
2019-03-08T12:47:22.593Z,0.37
2019-03-08T12:50:11.060Z,0.53
2019-03-08T12:53:08.100Z,0.60
2019-03-08T12:56:09.347Z,0.95
2019-03-08T12:58:49.451Z,0.70
2019-03-08T13:01:38.321Z,0.40
2019-03-08T13:04:32.486Z,0.50
2019-03-08T13:07:21.718Z,0.45
2019-03-08T13:09:51.401Z,0.28
2019-03-08T13:12:21.646Z,0.50
2019-03-08T13:14:51.732Z,0.70
2019-03-08T13:17:21.613Z,0.70
2019-03-08T13:19:51.818Z,0.42
2019-03-08T13:22:21.884Z,0.60
2019-03-08T13:24:51.776Z,0.40
2019-03-08T13:27:21.471Z,0.50
2019-03-08T13:29:51.113Z,0.40
2019-03-08T13:32:21.045Z,0.60
2019-03-08T13:34:51.507Z,0.30
2019-03-08T13:37:21.820Z,0.50
2019-03-08T13:39:51.475Z,0.42
2019-03-08T13:42:21.564Z,0.60
2019-03-08T13:44:51.691Z,0.40
2019-03-08T13:47:21.685Z,0.40
2019-03-08T13:49:51.756Z,0.70
2019-03-08T13:52:21.565Z,0.60
2019-03-08T13:54:51.244Z,0.62
2019-03-08T13:57:21.120Z,0.47
2019-03-08T13:59:50.717Z,0.60
2019-03-08T14:02:20.427Z,0.60
2019-03-08T14:04:51.392Z,0.50
2019-03-08T14:07:21.140Z,0.80
2019-03-08T14:09:50.760Z,0.68
2019-03-08T14:12:20.808Z,0.80
2019-03-08T14:14:51.076Z,0.72
2019-03-08T14:17:20.836Z,0.65
2019-03-08T14:19:50.470Z,0.53
2019-03-08T14:22:20.105Z,0.70
2019-03-08T14:24:49.790Z,0.40
2019-03-08T14:27:19.782Z,0.60
2019-03-08T14:29:49.391Z,0.70
2019-03-08T14:32:21.262Z,0.62
2019-03-08T14:34:53.664Z,0.90
2019-03-08T14:37:23.359Z,0.53
2019-03-08T14:39:53.771Z,0.68
2019-03-08T14:42:36.916Z,0.78
2019-03-08T14:45:20.776Z,0.42
2019-03-08T14:47:55.779Z,0.68
2019-03-08T14:50:25.462Z,0.80
2019-03-08T14:52:55.792Z,0.55
2019-03-08T14:55:26.728Z,0.68
2019-03-08T14:57:58.993Z,0.40
2019-03-08T15:00:29.247Z,0.98
2019-03-08T15:03:00.306Z,0.82
2019-03-08T15:05:30.303Z,0.62
2019-03-08T15:08:00.047Z,0.90
2019-03-08T15:10:38.825Z,0.82
2019-03-08T15:13:01.329Z,0.65
2019-03-08T15:17:25.865Z,0.47
2019-03-08T15:19:57.002Z,0.55
2019-03-08T15:22:26.567Z,0.70
2019-03-08T15:24:56.097Z,0.90
2019-03-08T15:27:25.612Z,0.68
2019-03-08T15:29:55.218Z,0.70
2019-03-08T15:32:25.121Z,0.50
2019-03-08T15:34:54.820Z,0.70
2019-03-08T15:37:25.464Z,0.62
2019-03-08T15:39:55.417Z,0.60
2019-03-08T15:42:25.025Z,0.65
2019-03-08T15:44:54.667Z,0.85
2019-03-08T15:47:24.182Z,0.70
2019-03-08T15:49:54.513Z,0.93
2019-03-08T15:52:25.063Z,0.60
2019-03-08T15:54:54.571Z,0.60
2019-03-08T15:57:24.477Z,0.60
2019-03-08T15:59:54.447Z,0.88
2019-03-08T16:02:24.020Z,0.72
2019-03-08T16:04:53.556Z,0.78
2019-03-08T16:07:26.300Z,0.68
2019-03-08T16:09:55.368Z,0.70
2019-03-08T16:12:25.376Z,0.70
2019-03-08T16:14:54.922Z,0.70
2019-03-08T16:17:24.514Z,0.60
2019-03-08T16:19:58.876Z,0.60
2019-03-08T16:22:30.158Z,0.45
2019-03-08T16:24:59.763Z,0.57
2019-03-08T16:27:29.868Z,0.50
2019-03-08T16:30:03.071Z,0.62
2019-03-08T16:32:49.986Z,0.80
2019-03-08T16:35:20.028Z,0.70
2019-03-08T16:38:07.262Z,0.55
2019-03-08T16:40:53.235Z,0.55
2019-03-08T16:43:35.197Z,0.60
2019-03-08T16:46:32.927Z,0.72
2019-03-08T16:49:18.818Z,0.65
2019-03-08T16:52:00.772Z,0.82
2019-03-08T16:54:49.704Z,0.88
2019-03-08T16:57:38.265Z,0.68
2019-03-08T17:00:25.937Z,0.90
2019-03-08T17:03:11.461Z,0.80
2019-03-08T17:05:57.196Z,0.95
2019-03-08T17:08:52.840Z,1.57
2019-03-08T17:11:35.521Z,0.88
2019-03-08T17:14:22.932Z,0.90
2019-03-08T17:17:10.498Z,0.78
2019-03-08T17:19:50.364Z,0.90
2019-03-08T17:22:48.349Z,1.10
2019-03-08T17:25:49.107Z,0.72
2019-03-08T17:28:37.974Z,1.00
2019-03-08T17:31:15.187Z,1.10
2019-03-08T17:34:38.584Z,1.10
2019-03-08T17:37:27.670Z,0.82
2019-03-08T17:40:13.138Z,1.32
2019-03-08T17:42:56.331Z,1.10
2019-03-08T17:45:44.544Z,1.55
2019-03-08T17:48:49.098Z,1.27
2019-03-08T17:51:36.765Z,1.00
2019-03-08T17:54:28.937Z,1.25
2019-03-08T17:57:26.983Z,1.30
2019-03-08T18:00:16.567Z,1.37
2019-03-08T18:03:02.243Z,1.22
2019-03-08T18:05:43.776Z,1.30
2019-03-08T18:08:36.668Z,1.40
2019-03-08T18:11:42.951Z,1.22
2019-03-08T18:14:32.437Z,1.20
2019-03-08T18:17:13.242Z,1.45
2019-03-08T18:20:03.060Z,1.50
2019-03-08T18:23:07.938Z,1.50
2019-03-08T18:26:00.039Z,1.10
2019-03-08T18:28:47.948Z,1.52
2019-03-08T18:31:36.506Z,1.50
2019-03-08T18:34:25.013Z,1.20
2019-03-08T18:37:12.899Z,1.22
2019-03-08T18:40:14.541Z,1.40
2019-03-08T18:43:02.406Z,1.40
2019-03-08T18:46:03.827Z,1.17
2019-03-08T18:48:52.026Z,1.60
2019-03-08T18:51:43.765Z,1.57
2019-03-08T18:54:28.141Z,1.20
2019-03-08T18:57:17.406Z,1.57
2019-03-08T19:00:09.514Z,1.07
2019-03-08T19:03:18.108Z,1.12
2019-03-08T19:06:05.681Z,1.12
2019-03-08T19:09:04.211Z,1.35
2019-03-08T19:11:51.286Z,1.40
2019-03-08T19:14:37.967Z,1.30
2019-03-08T19:17:27.658Z,1.25
2019-03-08T19:20:14.251Z,1.30
2019-03-08T19:22:54.482Z,1.10
2019-03-08T19:25:53.488Z,1.30
2019-03-08T19:28:43.438Z,1.20
2019-03-08T19:31:50.985Z,0.90
2019-03-08T19:34:38.830Z,1.25
2019-03-08T19:37:43.313Z,1.17
2019-03-08T19:40:36.300Z,1.40
2019-03-08T19:43:25.575Z,1.37
2019-03-08T19:46:07.569Z,1.70
2019-03-08T19:49:07.562Z,1.30
2019-03-08T19:51:55.615Z,1.42
2019-03-08T19:54:45.745Z,1.15
2019-03-08T19:57:32.805Z,1.20
2019-03-08T20:00:21.950Z,1.40
2019-03-08T20:03:21.155Z,1.20
2019-03-08T20:06:10.648Z,1.30
2019-03-08T20:09:09.031Z,1.55
2019-03-08T20:11:57.906Z,1.40
2019-03-08T20:14:47.648Z,1.32
2019-03-08T20:17:30.681Z,1.30
2019-03-08T20:20:22.841Z,1.30
2019-03-08T20:23:27.951Z,1.35
2019-03-08T20:26:07.105Z,1.32
2019-03-08T20:29:01.401Z,1.35
2019-03-08T20:31:46.009Z,1.50
2019-03-08T20:34:48.093Z,1.40
2019-03-08T20:37:39.123Z,1.57
2019-03-08T20:40:29.265Z,1.60
2019-03-08T20:43:08.071Z,2.55
2019-03-08T20:45:45.481Z,1.85
2019-03-08T20:48:16.085Z,3.60
2019-03-08T20:50:49.823Z,1.57
2019-03-08T20:53:22.146Z,1.92
2019-03-08T20:55:52.943Z,2.02
2019-03-08T20:58:24.143Z,1.90
2019-03-08T21:00:55.585Z,1.67
2019-03-08T21:03:26.717Z,1.85
2019-03-08T21:05:59.806Z,1.60
2019-03-08T21:08:30.167Z,1.90
2019-03-08T21:11:03.364Z,1.70
2019-03-08T21:13:33.815Z,1.77
2019-03-08T21:16:05.086Z,1.65
2019-03-08T21:18:36.752Z,1.60
2019-03-08T21:21:07.339Z,1.80
2019-03-08T21:23:38.234Z,1.50
2019-03-08T21:26:08.679Z,1.70
2019-03-08T21:28:40.499Z,1.67
2019-03-08T21:31:12.322Z,1.45
2019-03-08T21:33:42.722Z,2.02
2019-03-08T21:36:13.526Z,1.85
2019-03-08T21:38:44.059Z,1.70
2019-03-08T21:41:14.790Z,1.67
2019-03-08T21:43:45.649Z,1.75
2019-03-08T21:46:17.138Z,1.55
2019-03-08T21:48:47.546Z,1.72
2019-03-08T21:51:18.362Z,1.70
2019-03-08T21:53:48.730Z,1.95
2019-03-08T21:56:19.770Z,1.75
2019-03-08T21:58:50.787Z,1.60
2019-03-08T22:01:21.554Z,1.60
2019-03-08T22:03:58.842Z,1.70
2019-03-08T22:06:29.219Z,1.70
2019-03-08T22:09:06.246Z,1.30
2019-03-08T22:11:42.043Z,1.47
2019-03-08T22:14:12.421Z,1.52
2019-03-08T22:16:43.445Z,1.30
2019-03-08T22:19:14.071Z,1.70
2019-03-08T22:21:44.738Z,1.65
2019-03-08T22:24:15.165Z,1.30
2019-03-08T22:26:46.069Z,1.25
2019-03-08T22:29:16.635Z,1.30
2019-03-08T22:31:47.832Z,1.35
2019-03-08T22:34:18.362Z,1.42
2019-03-08T22:36:49.112Z,1.40
2019-03-08T22:39:19.701Z,1.42
2019-03-08T22:41:50.859Z,1.12
2019-03-08T22:44:21.494Z,1.22
2019-03-08T22:46:51.717Z,1.90
2019-03-08T22:49:25.817Z,0.98
2019-03-08T22:51:56.333Z,1.35
2019-03-08T22:54:27.775Z,1.50
2019-03-08T22:56:57.966Z,1.60
2019-03-08T23:00:23.764Z,1.30
2019-03-08T23:02:56.553Z,1.22
2019-03-08T23:05:26.676Z,1.55
2019-03-08T23:07:56.860Z,1.50
2019-03-08T23:10:27.709Z,1.35
2019-03-08T23:12:57.969Z,1.57
2019-03-08T23:15:29.996Z,1.32
2019-03-08T23:20:30.431Z,1.32
2019-03-08T23:23:00.939Z,1.98
2019-03-08T23:25:31.414Z,1.20
2019-03-08T23:28:19.328Z,1.60
2019-03-08T23:30:51.524Z,1.50
2019-03-08T23:33:21.884Z,1.43
2019-03-08T23:35:52.486Z,1.65
2019-03-08T23:38:22.782Z,1.80
2019-03-08T23:40:53.692Z,1.57
2019-03-08T23:43:23.966Z,1.22
2019-03-08T23:45:54.656Z,1.40
2019-03-08T23:48:25.223Z,1.65
2019-03-08T23:50:56.513Z,1.37
2019-03-08T23:53:27.153Z,1.60
2019-03-08T23:55:57.911Z,1.30
2019-03-08T23:58:28.791Z,1.30
